Time;durP1;ratioP1;P1;durP2;ratioP2;P2;SDS_P1;SDS_P2;PMS_P1;PMS_P2;Temp;Humidity;BMP_temperature;BMP_pressure;BME280_temperature;BME280_humidity;BME280_pressure;Samples;Min_cycle;Max_cycle;Signal;HPM_P1;HPM_P2
2023/08/04 00:00:09;;;;;;;4.43;1.70;;;;;;;17.50;48.99;100581.59;4979839;28;20228;-70
2023/08/04 00:02:39;;;;;;;3.40;1.73;;;;;;;17.47;49.09;100584.75;4980843;28;20105;-70
2023/08/04 00:05:09;;;;;;;5.25;2.00;;;;;;;17.49;49.43;100584.53;4980720;28;20101;-70
2023/08/04 00:07:37;;;;;;;4.03;1.88;;;;;;;17.48;49.54;100585.59;4983378;28;20056;-70
2023/08/04 00:10:06;;;;;;;4.00;1.70;;;;;;;17.47;49.01;100587.50;4978809;28;20146;-70
2023/08/04 00:12:34;;;;;;;3.33;1.75;;;;;;;17.46;49.25;100582.16;4982607;28;20048;-70
2023/08/04 00:15:02;;;;;;;5.47;1.75;;;;;;;17.45;49.04;100583.19;4980893;28;20917;-70
2023/08/04 00:17:30;;;;;;;2.92;1.42;;;;;;;17.45;49.13;100591.50;4982186;28;20061;-70
2023/08/04 00:19:58;;;;;;;3.45;1.50;;;;;;;17.44;49.16;100584.25;4983131;28;20287;-70
2023/08/04 00:22:28;;;;;;;3.63;1.75;;;;;;;17.45;49.42;100586.81;4984413;28;20089;-70
2023/08/04 00:24:55;;;;;;;4.32;1.70;;;;;;;17.44;49.38;100589.78;4984597;28;20133;-70
2023/08/04 00:27:23;;;;;;;4.05;1.80;;;;;;;17.42;48.90;100595.50;4983148;28;20045;-70
2023/08/04 00:29:51;;;;;;;3.25;1.83;;;;;;;17.42;49.05;100591.84;4983302;28;20073;-70
2023/08/04 00:32:19;;;;;;;3.70;1.58;;;;;;;17.40;49.37;100595.66;4965543;28;20094;-70
2023/08/04 00:34:47;;;;;;;3.90;1.75;;;;;;;17.41;49.21;100599.28;4966826;28;20472;-70
2023/08/04 00:37:15;;;;;;;4.15;1.88;;;;;;;17.40;49.26;100601.19;4983935;28;20046;-70
2023/08/04 00:39:44;;;;;;;3.67;1.60;;;;;;;17.42;48.85;100605.69;4982343;28;20050;-70
2023/08/04 00:42:12;;;;;;;4.75;1.80;;;;;;;17.38;49.43;100606.09;4984237;28;20365;-71
2023/08/04 00:44:40;;;;;;;4.13;1.80;;;;;;;17.37;49.20;100607.13;4985301;28;20129;-70
2023/08/04 00:47:08;;;;;;;3.47;1.80;;;;;;;17.35;49.21;100609.19;4980362;28;20511;-70
2023/08/04 00:49:36;;;;;;;3.28;1.70;;;;;;;17.36;49.31;100619.22;4982454;28;20074;-70
2023/08/04 00:52:05;;;;;;;3.65;1.60;;;;;;;17.36;48.87;100610.06;4987771;28;20452;-70
2023/08/04 00:54:34;;;;;;;4.75;1.70;;;;;;;17.35;49.22;100609.19;4971055;28;20521;-70
2023/08/04 00:57:04;;;;;;;4.15;1.67;;;;;;;17.36;48.92;100610.06;4989008;28;20137;-70
2023/08/04 00:59:32;;;;;;;4.22;1.70;;;;;;;17.33;49.00;100607.66;4983919;28;20042;-70
2023/08/04 01:02:00;;;;;;;4.03;1.50;;;;;;;17.31;48.53;100618.94;4981926;28;20169;-71
2023/08/04 01:04:28;;;;;;;3.38;1.50;;;;;;;17.31;48.60;100624.47;4987295;28;20066;-70
2023/08/04 01:07:12;;;;;;;4.35;1.67;;;;;;;17.32;49.01;100623.38;4981095;28;20513;-70
2023/08/04 01:09:47;;;;;;;2.83;1.60;;;;;;;17.30;49.49;100625.50;4985123;28;20211;-70
2023/08/04 01:12:23;;;;;;;3.28;2.03;;;;;;;17.31;49.11;100623.59;4981174;28;20063;-70
2023/08/04 01:14:53;;;;;;;4.60;2.03;;;;;;;17.27;49.11;100625.84;4984615;28;20053;-70
2023/08/04 01:17:23;;;;;;;3.90;1.65;;;;;;;17.27;49.14;100628.63;4982931;28;20042;-70
2023/08/04 01:19:51;;;;;;;3.38;1.70;;;;;;;17.25;49.27;100632.59;4967909;28;20039;-70
2023/08/04 01:22:21;;;;;;;3.08;1.50;;;;;;;17.26;48.96;100624.13;4969272;28;20510;-70
2023/08/04 01:24:49;;;;;;;3.70;1.98;;;;;;;17.24;48.64;100626.22;4982366;28;20373;-70
2023/08/04 01:27:22;;;;;;;3.67;1.80;;;;;;;17.25;48.96;100627.06;4968880;28;20129;-71
2023/08/04 01:29:50;;;;;;;5.03;1.95;;;;;;;17.23;48.76;100629.19;4986840;28;20074;-70
2023/08/04 01:32:18;;;;;;;2.35;1.35;;;;;;;17.23;48.87;100629.19;4981867;28;20552;-70
2023/08/04 01:34:49;;;;;;;2.72;1.70;;;;;;;17.22;48.88;100628.31;4969684;28;20042;-70
2023/08/04 01:37:17;;;;;;;3.78;1.90;;;;;;;17.20;49.28;100627.66;4984838;28;20133;-70
2023/08/04 01:39:46;;;;;;;4.95;1.80;;;;;;;17.22;49.07;100631.09;4983155;28;20046;-71
2023/08/04 01:42:14;;;;;;;3.80;1.92;;;;;;;17.20;49.06;100630.41;4985795;28;20584;-70
2023/08/04 01:44:42;;;;;;;4.03;1.77;;;;;;;17.19;48.86;100636.13;4979590;28;20280;-70
2023/08/04 01:47:10;;;;;;;4.68;1.92;;;;;;;17.18;48.74;100639.91;4969529;28;20051;-70
2023/08/04 01:49:38;;;;;;;4.05;2.03;;;;;;;17.17;48.60;100644.59;4977990;28;20622;-70
2023/08/04 01:52:06;;;;;;;3.75;1.73;;;;;;;17.16;48.75;100644.78;4984414;28;20066;-70
2023/08/04 01:54:35;;;;;;;4.25;1.80;;;;;;;17.14;48.65;100638.59;4969151;28;20069;-71
2023/08/04 01:57:04;;;;;;;3.20;2.13;;;;;;;17.14;48.95;100646.88;4985135;28;20054;-70
2023/08/04 01:59:33;;;;;;;4.93;2.47;;;;;;;17.11;48.42;100647.22;4984369;28;20039;-71
2023/08/04 02:02:00;;;;;;;4.05;2.10;;;;;;;17.09;48.93;100641.88;4983994;28;20413;-70
2023/08/04 02:04:28;;;;;;;4.25;1.70;;;;;;;17.07;48.76;100646.75;4969622;28;20046;-70
2023/08/04 02:06:56;;;;;;;3.78;1.90;;;;;;;17.08;48.74;100633.75;4985080;28;20108;-70
2023/08/04 02:09:27;;;;;;;4.30;2.25;;;;;;;17.03;48.89;100628.78;4967727;28;20252;-71
2023/08/04 02:11:57;;;;;;;4.45;2.10;;;;;;;17.00;48.58;100631.91;4985093;28;20070;-70
2023/08/04 02:14:27;;;;;;;4.68;2.30;;;;;;;17.02;49.41;100641.75;4984870;28;20041;-70
2023/08/04 02:16:56;;;;;;;5.93;2.45;;;;;;;17.00;49.00;100641.06;4968239;28;20054;-71
2023/08/04 02:19:23;;;;;;;6.88;2.40;;;;;;;16.99;49.02;100644.00;4973499;28;20288;-70
2023/08/04 02:21:52;;;;;;;4.20;2.00;;;;;;;16.98;48.93;100636.78;4981872;28;20046;-70
2023/08/04 02:24:20;;;;;;;4.60;1.90;;;;;;;16.96;49.29;100644.34;4984225;28;20133;-70
2023/08/04 02:26:48;;;;;;;5.45;2.33;;;;;;;16.95;49.41;100634.34;4974078;28;20058;-70
2023/08/04 02:29:16;;;;;;;3.88;2.10;;;;;;;16.94;48.92;100635.38;4987281;28;20129;-70
2023/08/04 02:31:45;;;;;;;3.63;2.00;;;;;;;16.94;49.12;100638.13;4985555;28;20046;-71
2023/08/04 02:34:13;;;;;;;4.72;2.30;;;;;;;16.91;49.10;100633.81;4986843;28;20526;-70
2023/08/04 02:36:41;;;;;;;3.40;1.70;;;;;;;16.90;49.34;100645.94;4966442;28;20047;-70
2023/08/04 02:39:09;;;;;;;4.25;2.10;;;;;;;16.88;48.93;100642.50;4984057;28;20038;-70
2023/08/04 02:41:37;;;;;;;3.95;2.03;;;;;;;16.89;49.23;100654.41;4964899;28;20065;-71
2023/08/04 02:44:06;;;;;;;5.07;2.47;;;;;;;16.88;49.54;100653.56;4983617;28;20125;-71
2023/08/04 02:46:34;;;;;;;4.78;2.10;;;;;;;16.87;49.23;100659.25;4980327;28;20112;-70
2023/08/04 02:49:03;;;;;;;4.55;2.20;;;;;;;16.89;49.81;100657.19;4981999;28;20038;-69
2023/08/04 02:51:31;;;;;;;6.88;2.40;;;;;;;16.87;49.34;100662.88;4984253;28;20042;-69
2023/08/04 02:53:59;;;;;;;6.03;2.10;;;;;;;16.87;49.91;100668.41;4966573;28;20521;-70
2023/08/04 02:56:27;;;;;;;4.57;2.10;;;;;;;16.86;49.62;100665.81;4983362;28;20133;-70
2023/08/04 02:58:55;;;;;;;4.50;2.13;;;;;;;16.86;50.08;100665.81;4984989;28;20069;-69
2023/08/04 03:01:23;;;;;;;6.18;2.40;;;;;;;16.85;49.83;100664.97;4982164;28;20050;-72
2023/08/04 03:03:51;;;;;;;5.82;2.15;;;;;;;16.86;49.68;100676.88;4983668;28;20433;-70
2023/08/04 03:06:20;;;;;;;6.90;2.50;;;;;;;16.87;50.03;100667.53;4979738;28;20145;-70
2023/08/04 03:08:48;;;;;;;6.93;2.30;;;;;;;16.86;50.17;100671.34;4980767;28;20107;-70
2023/08/04 03:11:16;;;;;;;5.68;2.55;;;;;;;16.84;49.80;100677.06;4986038;28;20042;-70
2023/08/04 03:13:44;;;;;;;5.38;2.20;;;;;;;16.85;50.21;100677.91;4982905;28;20050;-70
2023/08/04 03:16:12;;;;;;;4.88;2.28;;;;;;;16.85;49.61;100683.44;4984060;28;20045;-70
2023/08/04 03:18:40;;;;;;;6.35;2.33;;;;;;;16.85;50.09;100675.16;4981137;28;20050;-70
2023/08/04 03:21:08;;;;;;;5.97;2.60;;;;;;;16.84;50.21;100681.72;4981591;28;20057;-70
2023/08/04 03:23:38;;;;;;;5.30;2.15;;;;;;;16.85;49.76;100687.06;4980614;28;20043;-70
2023/08/04 03:26:05;;;;;;;4.70;2.50;;;;;;;16.83;49.87;100689.16;4984329;28;20133;-68
2023/08/04 03:28:33;;;;;;;4.63;2.30;;;;;;;16.83;49.81;100696.56;4983420;28;20050;-70
2023/08/04 03:31:01;;;;;;;4.85;2.20;;;;;;;16.83;50.38;100693.81;4982915;28;20358;-70
2023/08/04 03:33:29;;;;;;;8.82;3.25;;;;;;;16.82;49.98;100692.13;4984246;28;20046;-71
2023/08/04 03:35:57;;;;;;;5.13;2.30;;;;;;;16.81;50.45;100704.22;4986245;28;20117;-70
2023/08/04 03:38:25;;;;;;;5.47;2.55;;;;;;;16.81;50.35;100698.69;4986621;28;20442;-69
2023/08/04 03:40:55;;;;;;;6.97;2.33;;;;;;;16.82;50.51;100706.78;4987773;28;20046;-70
2023/08/04 03:43:23;;;;;;;5.57;2.72;;;;;;;16.81;50.04;100698.69;4987429;28;20298;-69
2023/08/04 03:45:51;;;;;;;5.70;2.65;;;;;;;16.80;50.43;100702.47;4980971;28;20050;-69
2023/08/04 03:48:19;;;;;;;6.15;2.60;;;;;;;16.80;50.28;100700.59;4983050;28;20568;-70
2023/08/04 03:50:46;;;;;;;6.45;2.60;;;;;;;16.80;50.80;100703.34;4983539;28;20069;-70
2023/08/04 03:53:14;;;;;;;6.20;2.70;;;;;;;16.80;50.27;100702.47;4982798;28;20913;-69
2023/08/04 03:55:43;;;;;;;5.40;2.65;;;;;;;16.81;50.15;100701.44;4982474;28;20132;-70
2023/08/04 03:58:13;;;;;;;6.10;2.50;;;;;;;16.82;50.36;100708.69;4982247;28;20034;-70
2023/08/04 04:00:40;;;;;;;5.63;2.80;;;;;;;16.80;50.42;100713.53;4982407;28;20094;-70
2023/08/04 04:03:08;;;;;;;6.05;2.75;;;;;;;16.80;50.86;100708.00;4982342;28;20085;-70
2023/08/04 04:05:38;;;;;;;4.18;2.38;;;;;;;16.79;50.78;100709.91;4984912;28;20053;-70
2023/08/04 04:08:06;;;;;;;5.00;2.47;;;;;;;16.78;50.22;100702.66;4963546;28;20050;-70
2023/08/04 04:10:34;;;;;;;5.93;2.90;;;;;;;16.79;50.11;100712.66;4981522;28;20129;-70
2023/08/04 04:13:02;;;;;;;7.38;3.03;;;;;;;16.79;50.27;100709.03;4982513;28;20518;-69
2023/08/04 04:15:32;;;;;;;7.45;2.70;;;;;;;16.81;50.16;100710.59;4982751;28;20074;-71
2023/08/04 04:18:00;;;;;;;6.25;2.40;;;;;;;16.79;50.77;100722.88;4986913;28;20133;-70
2023/08/04 04:20:28;;;;;;;5.03;2.10;;;;;;;16.79;50.62;100729.25;4984903;28;20050;-70
2023/08/04 04:22:55;;;;;;;5.82;2.65;;;;;;;16.80;50.61;100719.06;4987010;28;20057;-71
2023/08/04 04:25:23;;;;;;;6.70;2.58;;;;;;;16.79;50.65;100732.03;4988484;28;20034;-70
2023/08/04 04:27:51;;;;;;;5.30;2.60;;;;;;;16.79;50.41;100729.25;4988422;28;20097;-70
2023/08/04 04:30:19;;;;;;;5.07;2.50;;;;;;;16.79;50.69;100726.50;4987877;28;20050;-70
2023/08/04 04:32:48;;;;;;;4.82;2.40;;;;;;;16.81;50.45;100738.25;4987209;28;20127;-70
2023/08/04 04:35:16;;;;;;;5.63;2.45;;;;;;;16.78;50.94;100744.09;4983484;28;20045;-69
2023/08/04 04:37:44;;;;;;;5.35;2.30;;;;;;;16.78;50.46;100746.00;4984700;28;20070;-69
2023/08/04 04:40:12;;;;;;;4.65;2.70;;;;;;;16.78;50.79;100741.34;4989296;28;20137;-70
2023/08/04 04:42:40;;;;;;;5.53;2.53;;;;;;;16.78;50.65;100741.34;4983981;28;20039;-70
2023/08/04 04:45:09;;;;;;;6.70;2.95;;;;;;;16.79;50.87;100744.97;4986962;28;20050;-70
2023/08/04 04:47:37;;;;;;;5.78;2.75;;;;;;;16.78;51.08;100737.72;4987464;28;20081;-70
2023/08/04 04:50:07;;;;;;;4.68;2.45;;;;;;;16.79;50.83;100744.97;4987259;28;20077;-70
2023/08/04 04:52:37;;;;;;;6.93;2.40;;;;;;;16.79;51.13;100751.38;4988294;28;20125;-70
2023/08/04 04:55:06;;;;;;;5.95;2.40;;;;;;;16.78;51.11;100749.63;4987139;28;20035;-71
2023/08/04 04:57:37;;;;;;;5.93;2.60;;;;;;;16.77;50.91;100747.91;4971269;28;20137;-70
2023/08/04 05:00:06;;;;;;;5.22;2.50;;;;;;;16.78;51.10;100751.53;4970930;28;20349;-70
2023/08/04 05:02:34;;;;;;;4.93;2.42;;;;;;;16.77;50.83;100756.19;4976076;28;20153;-70
2023/08/04 05:05:03;;;;;;;5.15;2.50;;;;;;;16.79;50.72;100747.75;4978902;28;20785;-71
2023/08/04 05:07:32;;;;;;;6.05;2.40;;;;;;;16.80;50.93;100753.09;4980504;28;20202;-70
2023/08/04 05:10:00;;;;;;;4.63;2.40;;;;;;;16.79;51.24;100753.25;4984624;28;20081;-70
2023/08/04 05:12:28;;;;;;;5.82;2.50;;;;;;;16.80;50.81;100755.00;4965436;28;20050;-70
2023/08/04 05:14:56;;;;;;;6.00;2.80;;;;;;;16.80;50.94;100757.75;4978813;28;20069;-69
2023/08/04 05:17:24;;;;;;;6.75;2.60;;;;;;;16.81;51.17;100762.25;4981050;28;20240;-70
2023/08/04 05:19:52;;;;;;;5.07;2.55;;;;;;;16.81;50.90;100760.34;4964300;28;20397;-69
2023/08/04 05:22:20;;;;;;;6.25;2.67;;;;;;;16.82;50.86;100762.06;4980002;28;20046;-69
2023/08/04 05:24:49;;;;;;;6.55;2.88;;;;;;;16.84;51.49;100762.72;4984074;28;20124;-69
2023/08/04 05:27:32;;;;;;;5.93;2.88;;;;;;;16.82;51.33;100764.84;4982834;28;20101;-69
2023/08/04 05:30:00;;;;;;;8.00;2.63;;;;;;;16.83;51.28;100762.91;4967654;28;20051;-71
2023/08/04 05:32:28;;;;;;;5.40;2.78;;;;;;;16.84;51.34;100761.88;4990393;28;20046;-69
2023/08/04 05:36:59;;;;;;;6.68;2.63;;;;;;;16.83;50.92;100773.97;5108820;27;20122;-71
2023/08/04 05:39:27;;;;;;;6.45;3.00;;;;;;;16.84;51.27;100767.41;5094213;28;20045;-72
2023/08/04 05:41:55;;;;;;;4.70;3.05;;;;;;;16.85;51.16;100769.13;5083167;28;20729;-71
2023/08/04 05:44:23;;;;;;;7.03;2.85;;;;;;;16.85;51.07;100770.00;5080676;28;20040;-71
2023/08/04 05:46:51;;;;;;;4.93;2.58;;;;;;;16.87;50.85;100784.50;5078095;28;20107;-71
2023/08/04 05:49:19;;;;;;;6.55;3.10;;;;;;;16.87;50.79;100781.75;5076862;28;20052;-70
2023/08/04 05:51:47;;;;;;;6.28;2.88;;;;;;;16.89;51.10;100789.88;5077665;28;20436;-70
2023/08/04 05:54:17;;;;;;;4.80;2.63;;;;;;;16.91;50.55;100787.75;5087631;28;20051;-70
2023/08/04 05:56:45;;;;;;;4.93;2.80;;;;;;;16.89;50.53;100787.09;5099418;28;20054;-70
2023/08/04 05:59:13;;;;;;;6.22;3.30;;;;;;;16.90;50.84;100795.22;5079866;28;20037;-70
2023/08/04 06:01:41;;;;;;;5.45;2.78;;;;;;;16.91;51.30;100804.34;5080662;28;20522;-69
2023/08/04 06:04:08;;;;;;;6.97;3.15;;;;;;;16.91;51.20;100809.88;5084416;28;20133;-72
2023/08/04 06:06:36;;;;;;;6.60;3.03;;;;;;;16.92;50.79;100801.41;5075724;28;20044;-71
2023/08/04 06:09:04;;;;;;;6.65;3.28;;;;;;;16.92;50.65;100803.31;5079261;28;20039;-71
2023/08/04 06:11:34;;;;;;;7.68;3.08;;;;;;;16.94;51.00;100804.00;5098012;28;20079;-71
2023/08/04 06:14:02;;;;;;;7.63;2.95;;;;;;;16.93;51.13;100811.44;5099338;28;20554;-74
2023/08/04 06:16:30;;;;;;;7.85;3.28;;;;;;;16.93;50.92;100811.44;5096589;28;20096;-74
2023/08/04 06:18:58;;;;;;;5.32;2.75;;;;;;;16.94;50.94;100806.75;5104157;28;20074;-73
2023/08/04 06:21:26;;;;;;;6.15;2.72;;;;;;;16.95;51.03;100814.03;5097506;28;20047;-73
2023/08/04 06:23:55;;;;;;;5.35;2.63;;;;;;;16.96;50.63;100813.84;5097889;28;20102;-71
2023/08/04 06:26:23;;;;;;;6.25;2.90;;;;;;;16.96;50.61;100813.84;5094373;28;20109;-70
2023/08/04 06:28:53;;;;;;;6.63;2.90;;;;;;;16.99;50.61;100823.72;5100979;28;20044;-72
2023/08/04 06:31:20;;;;;;;6.78;2.80;;;;;;;16.98;50.97;100822.00;5101417;28;20119;-71
2023/08/04 06:33:48;;;;;;;6.05;2.80;;;;;;;16.99;51.00;100837.53;5099000;28;20039;-71
2023/08/04 06:36:16;;;;;;;5.93;2.90;;;;;;;16.99;50.83;100832.88;5100354;28;20123;-72
2023/08/04 06:38:44;;;;;;;7.47;3.17;;;;;;;17.00;50.87;100830.97;5097715;28;20044;-71
2023/08/04 06:41:12;;;;;;;6.72;2.53;;;;;;;17.01;51.15;100833.56;5099686;28;20080;-72
2023/08/04 06:43:40;;;;;;;6.40;2.80;;;;;;;17.04;50.57;100831.50;5096527;28;20104;-72
2023/08/04 06:46:09;;;;;;;6.00;2.83;;;;;;;17.08;50.75;100841.13;5097607;28;20104;-72
2023/08/04 06:48:37;;;;;;;6.63;2.95;;;;;;;17.08;51.04;100841.13;5088850;28;20048;-72
2023/08/04 06:51:05;;;;;;;6.78;3.13;;;;;;;17.08;50.70;100836.47;5085967;28;20560;-72
2023/08/04 06:53:33;;;;;;;6.15;3.20;;;;;;;17.10;50.85;100844.59;5087242;28;20384;-72
2023/08/04 06:56:00;;;;;;;6.10;3.00;;;;;;;17.11;50.58;100844.44;5086345;28;20044;-72
2023/08/04 06:58:28;;;;;;;5.05;2.90;;;;;;;17.11;50.79;100849.97;5083545;28;20047;-72
2023/08/04 07:00:56;;;;;;;6.28;2.72;;;;;;;17.14;50.60;100852.38;5082838;28;20041;-71
2023/08/04 07:03:25;;;;;;;6.22;2.88;;;;;;;17.17;50.61;100854.78;5086818;28;20438;-72
2023/08/04 07:05:53;;;;;;;6.43;2.72;;;;;;;17.16;50.96;100854.94;5083824;28;20047;-72
2023/08/04 07:08:21;;;;;;;6.20;2.55;;;;;;;17.17;50.96;100853.91;5088765;28;20069;-72
2023/08/04 07:10:49;;;;;;;7.13;3.05;;;;;;;17.18;50.93;100859.25;5086859;28;20044;-72
2023/08/04 07:13:17;;;;;;;6.43;2.95;;;;;;;17.19;51.11;100857.38;5086278;28;20497;-71
2023/08/04 07:15:54;;;;;;;5.68;3.08;;;;;;;17.24;51.21;100863.22;5088166;28;20040;-71
2023/08/04 07:18:23;;;;;;;7.72;3.50;;;;;;;17.21;50.87;100869.13;5087166;28;20040;-71
2023/08/04 07:20:53;;;;;;;4.70;2.92;;;;;;;17.24;50.64;100877.03;5087732;28;20040;-71
2023/08/04 07:23:21;;;;;;;6.03;2.70;;;;;;;17.22;50.57;100868.94;5084621;28;20101;-71
2023/08/04 07:25:56;;;;;;;6.60;2.95;;;;;;;17.25;50.57;100871.34;5086403;28;20167;-71
2023/08/04 07:28:24;;;;;;;6.05;2.95;;;;;;;17.23;51.18;100875.34;5086466;28;20548;-71
2023/08/04 07:30:52;;;;;;;6.97;3.00;;;;;;;17.24;50.72;100872.38;5081921;28;20811;-71
2023/08/04 07:33:20;;;;;;;6.20;3.20;;;;;;;17.26;50.72;100880.50;5085490;28;20709;-71
2023/08/04 07:35:54;;;;;;;6.45;2.75;;;;;;;17.30;50.51;100879.13;5086133;28;20051;-71
2023/08/04 07:38:22;;;;;;;4.32;2.60;;;;;;;17.28;50.87;100887.59;5086720;28;20067;-71
2023/08/04 07:40:50;;;;;;;5.13;2.58;;;;;;;17.29;51.01;100874.63;5087349;28;20092;-71
2023/08/04 07:43:18;;;;;;;5.47;2.60;;;;;;;17.31;51.23;100883.63;5085422;28;20040;-71
2023/08/04 07:45:46;;;;;;;7.28;2.67;;;;;;;17.33;50.74;100881.50;5084837;28;20127;-72
2023/08/04 07:48:14;;;;;;;4.82;2.40;;;;;;;17.34;51.02;100877.72;5083861;28;20062;-72
2023/08/04 07:50:44;;;;;;;5.68;2.58;;;;;;;17.37;51.20;100888.44;5084854;28;20433;-71
2023/08/04 07:53:13;;;;;;;5.13;2.67;;;;;;;17.40;51.32;100885.31;5083656;28;20050;-71
2023/08/04 07:55:41;;;;;;;5.18;2.40;;;;;;;17.39;51.13;100881.69;5087238;28;20115;-71
2023/08/04 07:58:10;;;;;;;5.90;2.55;;;;;;;17.43;50.87;100884.06;5082405;28;20048;-71
2023/08/04 08:00:38;;;;;;;5.22;2.50;;;;;;;17.44;51.16;100888.56;5085031;28;20054;-71
2023/08/04 08:03:06;;;;;;;6.22;2.60;;;;;;;17.46;51.20;100889.25;5103258;28;20036;-72
2023/08/04 08:05:34;;;;;;;5.75;2.58;;;;;;;17.48;51.02;100885.28;5086603;28;20101;-71
2023/08/04 08:08:02;;;;;;;6.00;2.63;;;;;;;17.50;51.22;100883.19;5083141;28;20137;-72
2023/08/04 08:10:31;;;;;;;5.65;2.45;;;;;;;17.54;50.96;100881.78;5086427;28;20044;-72
2023/08/04 08:13:01;;;;;;;5.15;2.45;;;;;;;17.55;50.83;100886.28;5087196;28;21159;-71
2023/08/04 08:15:29;;;;;;;6.10;2.53;;;;;;;17.58;50.80;100883.16;5086502;28;20166;-71
2023/08/04 08:17:58;;;;;;;5.18;2.60;;;;;;;17.60;51.14;100881.06;5083435;28;20032;-72
2023/08/04 08:20:26;;;;;;;4.70;2.10;;;;;;;17.63;50.84;100890.94;5084280;28;20040;-72
2023/08/04 08:22:54;;;;;;;5.28;2.63;;;;;;;17.67;50.96;100889.50;5084571;28;20400;-71
2023/08/04 08:25:23;;;;;;;4.63;2.20;;;;;;;17.70;51.02;100891.94;5082747;28;20040;-72
2023/08/04 08:27:52;;;;;;;5.47;2.63;;;;;;;17.74;50.58;100885.88;5084790;28;20094;-72
2023/08/04 08:30:20;;;;;;;4.97;2.40;;;;;;;17.76;50.86;100892.09;5084231;28;20133;-71
2023/08/04 08:32:48;;;;;;;4.80;2.50;;;;;;;17.81;51.10;100893.47;5084164;28;20055;-72
2023/08/04 08:35:16;;;;;;;5.30;2.75;;;;;;;17.85;50.50;100894.81;5086159;28;20127;-71
2023/08/04 08:37:44;;;;;;;7.63;2.40;;;;;;;17.88;50.88;100898.09;5100355;28;20055;-72
2023/08/04 08:40:13;;;;;;;5.47;2.60;;;;;;;17.93;50.35;100903.94;5083320;28;20130;-72
2023/08/04 08:42:41;;;;;;;4.88;2.38;;;;;;;17.95;50.53;100907.41;5085993;28;20048;-72
2023/08/04 08:45:11;;;;;;;4.47;2.53;;;;;;;18.00;50.81;100906.84;5085060;28;20046;-72
2023/08/04 08:47:39;;;;;;;4.53;2.45;;;;;;;18.04;50.88;100908.22;5085816;28;20499;-72
2023/08/04 08:50:07;;;;;;;5.85;2.60;;;;;;;18.09;50.71;100912.16;5085300;28;20418;-72
2023/08/04 08:52:38;;;;;;;5.28;2.55;;;;;;;18.17;50.95;100905.69;5086645;28;20060;-72
2023/08/04 08:55:07;;;;;;;5.03;2.80;;;;;;;18.24;51.04;100912.22;5085722;28;20131;-73
2023/08/04 08:57:35;;;;;;;4.60;2.63;;;;;;;18.31;50.50;100907.69;5084487;28;20193;-72
2023/08/04 09:00:04;;;;;;;4.68;2.60;;;;;;;18.40;50.35;100914.03;5085965;28;20136;-72
2023/08/04 09:02:34;;;;;;;5.72;2.80;;;;;;;18.49;50.33;100907.41;5082087;28;20097;-72
2023/08/04 09:05:05;;;;;;;4.50;2.60;;;;;;;18.58;50.12;100910.97;5087366;28;20384;-72
2023/08/04 09:07:33;;;;;;;5.13;2.92;;;;;;;18.64;50.26;100913.88;5085936;28;20039;-72
2023/08/04 09:10:01;;;;;;;5.32;2.63;;;;;;;18.74;50.28;100911.72;5083955;28;20079;-72
2023/08/04 09:12:32;;;;;;;4.35;2.80;;;;;;;18.84;50.07;100917.88;5085798;28;20039;-72
2023/08/04 09:15:01;;;;;;;4.30;2.10;;;;;;;18.93;49.61;100920.56;5085060;28;20094;-72
2023/08/04 09:17:31;;;;;;;5.15;2.10;;;;;;;19.02;49.42;100917.53;5079074;28;20054;-72
2023/08/04 09:20:01;;;;;;;5.75;2.13;;;;;;;19.10;48.87;100925.78;5084455;28;20048;-72
2023/08/04 09:22:31;;;;;;;3.90;2.03;;;;;;;19.16;48.87;100925.00;5065163;22;20041;-73
2023/08/04 09:25:00;;;;;;;5.18;2.42;;;;;;;19.23;48.21;100926.00;5042397;28;20140;-73
2023/08/04 09:27:30;;;;;;;5.93;2.30;;;;;;;19.30;47.98;100925.22;5044385;28;20114;-73
2023/08/04 09:29:59;;;;;;;4.20;2.17;;;;;;;19.32;47.97;100921.22;5039767;28;20106;-73
2023/08/04 09:32:28;;;;;;;5.88;2.40;;;;;;;19.37;47.88;100924.31;5043165;28;20053;-73
2023/08/04 09:35:03;;;;;;;5.00;2.30;;;;;;;19.42;46.71;100927.38;5043992;28;20140;-73
2023/08/04 09:37:32;;;;;;;4.35;2.30;;;;;;;19.42;47.08;100923.72;5042523;28;20533;-73
2023/08/04 09:40:03;;;;;;;3.55;2.10;;;;;;;19.44;47.41;100924.41;5044446;28;20164;-73
2023/08/04 09:42:31;;;;;;;4.97;2.17;;;;;;;19.44;46.95;100930.81;5043989;28;20033;-74
2023/08/04 09:44:59;;;;;;;4.95;2.35;;;;;;;19.45;47.13;100926.13;5043973;28;20603;-73
2023/08/04 09:47:28;;;;;;;6.20;2.22;;;;;;;19.47;46.57;100930.41;5042719;28;20044;-73
2023/08/04 09:49:57;;;;;;;4.93;2.30;;;;;;;19.45;46.57;100937.22;5039413;28;20422;-74
2023/08/04 09:52:30;;;;;;;4.55;2.20;;;;;;;19.48;46.71;100936.84;5046699;28;20041;-73
2023/08/04 09:54:58;;;;;;;4.20;2.10;;;;;;;19.44;46.70;100943.84;5046506;28;20052;-73
2023/08/04 09:57:26;;;;;;;4.65;2.40;;;;;;;19.44;47.12;100949.38;5043046;28;20118;-74
2023/08/04 09:59:54;;;;;;;5.38;2.28;;;;;;;19.43;47.33;100947.66;5043626;28;20107;-74
2023/08/04 10:02:21;;;;;;;4.78;2.53;;;;;;;19.41;47.50;100946.97;5043348;28;20431;-75
2023/08/04 10:04:52;;;;;;;4.65;2.20;;;;;;;19.41;47.63;100952.53;5047118;28;20051;-74
2023/08/04 10:07:20;;;;;;;3.50;2.30;;;;;;;19.35;47.79;100944.97;5042183;28;20033;-74
2023/08/04 10:09:50;;;;;;;5.50;2.45;;;;;;;19.33;47.90;100949.84;5040402;28;20412;-74
2023/08/04 10:12:19;;;;;;;4.28;2.00;;;;;;;19.27;48.22;100951.47;5043733;28;20059;-74
2023/08/04 10:14:47;;;;;;;4.15;2.05;;;;;;;19.21;48.03;100941.97;5042031;28;20130;-74
2023/08/04 10:17:15;;;;;;;3.80;2.10;;;;;;;19.18;48.00;100947.03;5041808;28;20171;-73
2023/08/04 10:19:43;;;;;;;3.60;2.00;;;;;;;19.15;48.12;100944.59;5043089;28;20041;-73
2023/08/04 10:22:13;;;;;;;2.55;1.75;;;;;;;19.12;48.27;100943.09;5040582;28;20584;-74
2023/08/04 10:24:42;;;;;;;3.92;2.28;;;;;;;19.09;48.21;100949.00;5046382;28;20052;-73
2023/08/04 10:27:19;;;;;;;3.50;1.95;;;;;;;19.08;48.23;100952.81;5045060;28;20033;-73
2023/08/04 10:30:02;;;;;;;3.65;2.13;;;;;;;19.04;48.98;100950.63;5046584;28;20052;-74
2023/08/04 10:32:35;;;;;;;4.10;2.40;;;;;;;19.03;48.92;100952.53;5044975;28;20064;-73
2023/08/04 10:35:06;;;;;;;3.88;2.30;;;;;;;19.02;49.20;100961.91;5048413;28;20037;-73
2023/08/04 10:37:49;;;;;;;3.70;2.35;;;;;;;19.02;49.16;100952.72;5050728;28;20041;-73
2023/08/04 10:40:29;;;;;;;5.00;2.30;;;;;;;19.01;48.76;100946.31;5045400;28;20124;-73
2023/08/04 10:43:00;;;;;;;3.97;2.30;;;;;;;19.00;49.31;100950.13;5045762;28;20403;-73
2023/08/04 10:45:49;;;;;;;3.72;2.30;;;;;;;19.01;49.09;100951.88;5045413;28;20037;-73
2023/08/04 10:48:19;;;;;;;5.75;2.55;;;;;;;19.01;49.16;100953.78;5045741;28;20550;-73
2023/08/04 10:50:47;;;;;;;4.85;2.25;;;;;;;19.02;49.34;100950.81;5042634;28;20072;-73
2023/08/04 10:53:16;;;;;;;3.92;2.35;;;;;;;19.04;49.30;100954.28;5048448;28;20067;-73
2023/08/04 10:55:52;;;;;;;4.40;2.38;;;;;;;19.09;48.59;100956.47;5048012;28;20578;-73
2023/08/04 10:58:21;;;;;;;5.07;2.47;;;;;;;19.11;48.89;100951.59;5043750;28;20041;-73
2023/08/04 11:00:52;;;;;;;;;;;;;;;18.82;49.15;100953.22;5047890;28;20040;-72
2023/08/04 11:03:22;;;;;;;3.78;1.98;;;;;;;19.09;48.93;100957.34;5048008;28;19921;-72
2023/08/04 11:05:52;;;;;;;3.30;2.13;;;;;;;19.16;48.49;100949.13;5047781;28;20122;-72
2023/08/04 11:08:21;;;;;;;3.90;2.60;;;;;;;19.18;48.60;100961.75;5047582;28;20132;-73
2023/08/04 11:10:50;;;;;;;5.15;2.22;;;;;;;19.21;48.56;100960.56;5045458;28;20045;-73
2023/08/04 11:13:20;;;;;;;5.05;2.70;;;;;;;19.25;48.18;100957.19;5044420;28;20110;-73
2023/08/04 11:15:50;;;;;;;5.50;2.60;;;;;;;19.30;47.85;100952.97;5046729;28;20045;-72
2023/08/04 11:18:23;;;;;;;4.10;2.20;;;;;;;19.35;48.16;100951.38;5044755;28;20041;-72
2023/08/04 11:20:51;;;;;;;3.92;2.30;;;;;;;19.38;48.32;100958.47;5048608;28;20044;-72
2023/08/04 11:23:26;;;;;;;5.63;2.25;;;;;;;19.47;47.20;100957.31;5045214;28;20653;-72
2023/08/04 11:25:55;;;;;;;3.58;2.00;;;;;;;19.50;47.86;100956.94;5049873;28;20106;-72
2023/08/04 11:28:24;;;;;;;3.20;2.20;;;;;;;19.57;47.39;100955.13;5045080;28;20036;-73
2023/08/04 11:31:04;;;;;;;5.60;2.40;;;;;;;19.68;46.64;100953.78;5044638;28;20058;-73
2023/08/04 11:33:33;;;;;;;3.30;2.17;;;;;;;19.71;47.57;100958.97;5046417;28;20536;-72